sensor_id;sensor_type;location;lat;lon;timestamp;pressure;altitude;pressure_sealevel;temperature;humidity
74422;BME280;62856;51.446;8.360;2022-10-04T00:04:14;98730.75;;;6.55;100.00
74422;BME280;62856;51.446;8.360;2022-10-04T00:06:50;98718.44;;;6.54;100.00
74422;BME280;62856;51.446;8.360;2022-10-04T00:09:21;98711.22;;;6.54;100.00
74422;BME280;62856;51.446;8.360;2022-10-04T00:11:49;98719.19;;;6.66;100.00
74422;BME280;62856;51.446;8.360;2022-10-04T00:14:34;98709.84;;;6.68;100.00
74422;BME280;62856;51.446;8.360;2022-10-04T00:17:09;98712.63;;;6.73;100.00
74422;BME280;62856;51.446;8.360;2022-10-04T00:19:42;98722.75;;;6.71;100.00
74422;BME280;62856;51.446;8.360;2022-10-04T00:22:12;98718.72;;;6.69;100.00
74422;BME280;62856;51.446;8.360;2022-10-04T00:27:34;98706.09;;;6.53;100.00
74422;BME280;62856;51.446;8.360;2022-10-04T00:38:14;98724.13;;;6.29;100.00
74422;BME280;62856;51.446;8.360;2022-10-04T00:41:03;98729.41;;;6.24;100.00
74422;BME280;62856;51.446;8.360;2022-10-04T00:43:40;98724.81;;;6.08;100.00
74422;BME280;62856;51.446;8.360;2022-10-04T00:46:13;98719.22;;;6.09;100.00
74422;BME280;62856;51.446;8.360;2022-10-04T00:48:56;98719.94;;;6.05;100.00
74422;BME280;62856;51.446;8.360;2022-10-04T00:51:28;98713.88;;;6.09;100.00
74422;BME280;62856;51.446;8.360;2022-10-04T00:54:19;98710.84;;;6.06;100.00
74422;BME280;62856;51.446;8.360;2022-10-04T00:57:06;98704.00;;;5.98;100.00
74422;BME280;62856;51.446;8.360;2022-10-04T01:02:11;98690.97;;;6.02;100.00
74422;BME280;62856;51.446;8.360;2022-10-04T01:07:34;98707.22;;;6.12;100.00
74422;BME280;62856;51.446;8.360;2022-10-04T01:10:09;98698.25;;;6.18;100.00
74422;BME280;62856;51.446;8.360;2022-10-04T01:15:09;98687.09;;;6.09;100.00
74422;BME280;62856;51.446;8.360;2022-10-04T01:17:37;98686.31;;;6.09;100.00
74422;BME280;62856;51.446;8.360;2022-10-04T01:20:02;98685.56;;;6.13;100.00
74422;BME280;62856;51.446;8.360;2022-10-04T01:24:59;98674.91;;;6.30;100.00
74422;BME280;62856;51.446;8.360;2022-10-04T01:27:39;98684.19;;;6.39;100.00
74422;BME280;62856;51.446;8.360;2022-10-04T01:30:09;98681.19;;;6.52;100.00
74422;BME280;62856;51.446;8.360;2022-10-04T01:32:37;98671.38;;;6.58;100.00
74422;BME280;62856;51.446;8.360;2022-10-04T01:35:03;98670.06;;;6.60;100.00
74422;BME280;62856;51.446;8.360;2022-10-04T01:37:28;98667.81;;;6.69;100.00
74422;BME280;62856;51.446;8.360;2022-10-04T01:39:54;98662.53;;;6.74;100.00
74422;BME280;62856;51.446;8.360;2022-10-04T01:42:23;98656.69;;;6.77;100.00
74422;BME280;62856;51.446;8.360;2022-10-04T01:48:19;98648.56;;;6.88;100.00
74422;BME280;62856;51.446;8.360;2022-10-04T01:51:01;98641.09;;;6.90;100.00
74422;BME280;62856;51.446;8.360;2022-10-04T01:53:31;98638.72;;;6.94;100.00
74422;BME280;62856;51.446;8.360;2022-10-04T01:56:04;98620.28;;;6.97;100.00
74422;BME280;62856;51.446;8.360;2022-10-04T01:58:39;98618.66;;;6.96;100.00
74422;BME280;62856;51.446;8.360;2022-10-04T02:01:12;98614.91;;;6.97;100.00
74422;BME280;62856;51.446;8.360;2022-10-04T02:03:50;98611.75;;;7.00;100.00
74422;BME280;62856;51.446;8.360;2022-10-04T02:06:18;98612.63;;;7.06;100.00
74422;BME280;62856;51.446;8.360;2022-10-04T02:08:48;98619.13;;;7.10;100.00
74422;BME280;62856;51.446;8.360;2022-10-04T02:11:17;98620.72;;;7.11;100.00
74422;BME280;62856;51.446;8.360;2022-10-04T02:13:45;98610.50;;;7.08;100.00
74422;BME280;62856;51.446;8.360;2022-10-04T02:16:11;98615.31;;;7.06;100.00
74422;BME280;62856;51.446;8.360;2022-10-04T02:18:38;98613.38;;;7.01;100.00
74422;BME280;62856;51.446;8.360;2022-10-04T02:21:05;98611.16;;;6.98;100.00
74422;BME280;62856;51.446;8.360;2022-10-04T02:23:32;98605.25;;;6.96;100.00
74422;BME280;62856;51.446;8.360;2022-10-04T02:25:58;98605.19;;;6.91;100.00
74422;BME280;62856;51.446;8.360;2022-10-04T02:28:23;98610.47;;;6.86;100.00
74422;BME280;62856;51.446;8.360;2022-10-04T02:30:50;98600.72;;;6.80;100.00
74422;BME280;62856;51.446;8.360;2022-10-04T02:33:44;98593.81;;;6.84;100.00
74422;BME280;62856;51.446;8.360;2022-10-04T02:36:10;98595.94;;;6.82;100.00
74422;BME280;62856;51.446;8.360;2022-10-04T02:38:43;98600.47;;;6.82;100.00
74422;BME280;62856;51.446;8.360;2022-10-04T02:41:33;98597.56;;;6.83;100.00
74422;BME280;62856;51.446;8.360;2022-10-04T02:44:09;98589.28;;;6.85;100.00
74422;BME280;62856;51.446;8.360;2022-10-04T02:49:43;98583.81;;;6.96;100.00
74422;BME280;62856;51.446;8.360;2022-10-04T02:52:20;98586.25;;;6.98;100.00
74422;BME280;62856;51.446;8.360;2022-10-04T02:54:53;98587.38;;;7.02;100.00
74422;BME280;62856;51.446;8.360;2022-10-04T02:57:22;98594.13;;;7.04;100.00
74422;BME280;62856;51.446;8.360;2022-10-04T02:59:49;98596.28;;;7.07;100.00
74422;BME280;62856;51.446;8.360;2022-10-04T03:02:24;98599.38;;;7.16;100.00
74422;BME280;62856;51.446;8.360;2022-10-04T03:04:51;98600.16;;;7.16;100.00
74422;BME280;62856;51.446;8.360;2022-10-04T03:07:18;98594.31;;;7.19;100.00
74422;BME280;62856;51.446;8.360;2022-10-04T03:09:44;98601.81;;;7.17;100.00
74422;BME280;62856;51.446;8.360;2022-10-04T03:12:09;98598.63;;;7.20;100.00
74422;BME280;62856;51.446;8.360;2022-10-04T03:14:37;98585.22;;;7.20;100.00
74422;BME280;62856;51.446;8.360;2022-10-04T03:17:03;98580.66;;;7.21;100.00
74422;BME280;62856;51.446;8.360;2022-10-04T03:19:31;98580.41;;;7.22;100.00
74422;BME280;62856;51.446;8.360;2022-10-04T03:22:02;98568.66;;;7.23;100.00
74422;BME280;62856;51.446;8.360;2022-10-04T03:24:35;98566.59;;;7.31;100.00
74422;BME280;62856;51.446;8.360;2022-10-04T03:27:04;98559.41;;;7.36;100.00
74422;BME280;62856;51.446;8.360;2022-10-04T03:29:31;98561.63;;;7.44;100.00
74422;BME280;62856;51.446;8.360;2022-10-04T03:32:00;98571.63;;;7.49;100.00
74422;BME280;62856;51.446;8.360;2022-10-04T03:34:32;98559.63;;;7.56;100.00
74422;BME280;62856;51.446;8.360;2022-10-04T03:36:59;98557.81;;;7.62;100.00
74422;BME280;62856;51.446;8.360;2022-10-04T03:39:30;98558.34;;;7.64;100.00
74422;BME280;62856;51.446;8.360;2022-10-04T03:42:00;98555.63;;;7.59;100.00
74422;BME280;62856;51.446;8.360;2022-10-04T03:44:27;98566.81;;;7.51;100.00
74422;BME280;62856;51.446;8.360;2022-10-04T03:46:52;98560.81;;;7.44;100.00
74422;BME280;62856;51.446;8.360;2022-10-04T03:49:28;98560.19;;;7.37;100.00
74422;BME280;62856;51.446;8.360;2022-10-04T03:51:56;98563.19;;;7.40;100.00
74422;BME280;62856;51.446;8.360;2022-10-04T03:54:23;98574.38;;;7.32;100.00
74422;BME280;62856;51.446;8.360;2022-10-04T03:56:52;98564.50;;;7.38;100.00
74422;BME280;62856;51.446;8.360;2022-10-04T03:59:19;98565.97;;;7.23;100.00
74422;BME280;62856;51.446;8.360;2022-10-04T04:02:10;98568.88;;;7.22;100.00
74422;BME280;62856;51.446;8.360;2022-10-04T04:04:55;98565.97;;;7.23;100.00
74422;BME280;62856;51.446;8.360;2022-10-04T04:07:37;98575.03;;;7.22;100.00
74422;BME280;62856;51.446;8.360;2022-10-04T04:12:56;98572.88;;;7.19;100.00
74422;BME280;62856;51.446;8.360;2022-10-04T04:15:28;98577.41;;;7.19;100.00
74422;BME280;62856;51.446;8.360;2022-10-04T04:17:55;98573.44;;;7.21;100.00
74422;BME280;62856;51.446;8.360;2022-10-04T04:20:27;98576.69;;;7.23;100.00
74422;BME280;62856;51.446;8.360;2022-10-04T04:25:43;98562.88;;;7.37;100.00
74422;BME280;62856;51.446;8.360;2022-10-04T04:28:31;98559.72;;;7.40;100.00
74422;BME280;62856;51.446;8.360;2022-10-04T04:31:15;98557.09;;;7.45;100.00
74422;BME280;62856;51.446;8.360;2022-10-04T04:33:45;98562.75;;;7.48;100.00
74422;BME280;62856;51.446;8.360;2022-10-04T04:36:14;98557.94;;;7.50;100.00
74422;BME280;62856;51.446;8.360;2022-10-04T04:38:42;98545.09;;;7.52;100.00
74422;BME280;62856;51.446;8.360;2022-10-04T04:41:45;98545.66;;;7.54;100.00
74422;BME280;62856;51.446;8.360;2022-10-04T04:44:15;98540.59;;;7.58;100.00
74422;BME280;62856;51.446;8.360;2022-10-04T04:46:43;98543.84;;;7.60;100.00
74422;BME280;62856;51.446;8.360;2022-10-04T04:49:09;98543.03;;;7.59;100.00
74422;BME280;62856;51.446;8.360;2022-10-04T04:51:35;98539.84;;;7.62;100.00
74422;BME280;62856;51.446;8.360;2022-10-04T04:54:03;98522.69;;;7.63;100.00
74422;BME280;62856;51.446;8.360;2022-10-04T04:56:31;98521.09;;;7.67;100.00
74422;BME280;62856;51.446;8.360;2022-10-04T04:59:00;98514.44;;;7.70;100.00
74422;BME280;62856;51.446;8.360;2022-10-04T05:01:53;98508.81;;;7.71;100.00
74422;BME280;62856;51.446;8.360;2022-10-04T05:04:21;98511.22;;;7.73;100.00
74422;BME280;62856;51.446;8.360;2022-10-04T05:07:05;98510.22;;;7.79;100.00
74422;BME280;62856;51.446;8.360;2022-10-04T05:09:33;98504.34;;;7.82;100.00
74422;BME280;62856;51.446;8.360;2022-10-04T05:14:46;98505.03;;;7.99;100.00
74422;BME280;62856;51.446;8.360;2022-10-04T05:17:20;98505.06;;;8.04;100.00
74422;BME280;62856;51.446;8.360;2022-10-04T05:19:48;98507.34;;;8.22;100.00
74422;BME280;62856;51.446;8.360;2022-10-04T05:22:19;98505.84;;;8.31;100.00
74422;BME280;62856;51.446;8.360;2022-10-04T05:24:49;98512.50;;;8.23;100.00
74422;BME280;62856;51.446;8.360;2022-10-04T05:27:29;98507.63;;;8.20;100.00
74422;BME280;62856;51.446;8.360;2022-10-04T05:33:08;98503.03;;;8.16;100.00
74422;BME280;62856;51.446;8.360;2022-10-04T05:35:52;98505.72;;;8.16;100.00
74422;BME280;62856;51.446;8.360;2022-10-04T05:38:36;98513.00;;;8.20;100.00
74422;BME280;62856;51.446;8.360;2022-10-04T05:41:35;98513.78;;;8.16;100.00
74422;BME280;62856;51.446;8.360;2022-10-04T05:44:44;98514.34;;;8.18;100.00
74422;BME280;62856;51.446;8.360;2022-10-04T05:47:05;98510.56;;;8.19;100.00
74422;BME280;62856;51.446;8.360;2022-10-04T05:49:41;98509.75;;;8.18;100.00
74422;BME280;62856;51.446;8.360;2022-10-04T05:52:30;98516.22;;;8.22;100.00
74422;BME280;62856;51.446;8.360;2022-10-04T05:55:17;98522.31;;;8.13;100.00
74422;BME280;62856;51.446;8.360;2022-10-04T06:00:18;98534.34;;;8.05;100.00
74422;BME280;62856;51.446;8.360;2022-10-04T06:03:16;98528.94;;;8.00;100.00
74422;BME280;62856;51.446;8.360;2022-10-04T06:05:59;98523.25;;;7.97;100.00
74422;BME280;62856;51.446;8.360;2022-10-04T06:22:16;98532.09;;;7.66;100.00
74422;BME280;62856;51.446;8.360;2022-10-04T06:24:44;98533.91;;;7.60;100.00
74422;BME280;62856;51.446;8.360;2022-10-04T06:29:59;98533.41;;;7.63;100.00
74422;BME280;62856;51.446;8.360;2022-10-04T06:32:33;98530.19;;;7.61;100.00
74422;BME280;62856;51.446;8.360;2022-10-04T06:46:25;98525.34;;;7.90;100.00
74422;BME280;62856;51.446;8.360;2022-10-04T06:49:15;98521.13;;;7.99;100.00
74422;BME280;62856;51.446;8.360;2022-10-04T06:55:04;98523.13;;;8.13;100.00
74422;BME280;62856;51.446;8.360;2022-10-04T07:00:18;98525.56;;;8.42;100.00
74422;BME280;62856;51.446;8.360;2022-10-04T07:02:50;98523.72;;;8.47;100.00
74422;BME280;62856;51.446;8.360;2022-10-04T07:05:47;98522.66;;;8.53;100.00
74422;BME280;62856;51.446;8.360;2022-10-04T07:08:25;98508.75;;;8.61;100.00
74422;BME280;62856;51.446;8.360;2022-10-04T07:11:25;98515.03;;;8.82;100.00
74422;BME280;62856;51.446;8.360;2022-10-04T07:16:45;98513.00;;;9.04;100.00
74422;BME280;62856;51.446;8.360;2022-10-04T07:19:28;98507.94;;;9.17;100.00
74422;BME280;62856;51.446;8.360;2022-10-04T07:24:50;98497.53;;;9.41;100.00
74422;BME280;62856;51.446;8.360;2022-10-04T07:30:05;98506.22;;;9.63;100.00
74422;BME280;62856;51.446;8.360;2022-10-04T07:32:34;98511.88;;;9.77;100.00
74422;BME280;62856;51.446;8.360;2022-10-04T07:37:52;98521.34;;;9.94;100.00
74422;BME280;62856;51.446;8.360;2022-10-04T07:40:29;98521.34;;;10.04;100.00
74422;BME280;62856;51.446;8.360;2022-10-04T07:43:00;98528.38;;;10.10;100.00
74422;BME280;62856;51.446;8.360;2022-10-04T07:45:31;98524.34;;;10.18;100.00
74422;BME280;62856;51.446;8.360;2022-10-04T07:48:11;98531.06;;;10.36;100.00
74422;BME280;62856;51.446;8.360;2022-10-04T07:50:39;98534.56;;;10.41;100.00
74422;BME280;62856;51.446;8.360;2022-10-04T07:53:15;98525.13;;;10.44;100.00
74422;BME280;62856;51.446;8.360;2022-10-04T07:56:01;98532.13;;;10.65;100.00
74422;BME280;62856;51.446;8.360;2022-10-04T08:01:19;98522.09;;;10.80;100.00
74422;BME280;62856;51.446;8.360;2022-10-04T08:06:35;98520.41;;;11.04;100.00
74422;BME280;62856;51.446;8.360;2022-10-04T08:20:25;98522.13;;;11.44;95.18
74422;BME280;62856;51.446;8.360;2022-10-04T08:25:41;98516.91;;;11.63;96.12
74422;BME280;62856;51.446;8.360;2022-10-04T08:31:19;98522.28;;;11.78;93.07
74422;BME280;62856;51.446;8.360;2022-10-04T08:34:14;98521.41;;;11.82;93.55
74422;BME280;62856;51.446;8.360;2022-10-04T08:37:07;98534.31;;;11.95;90.47
74422;BME280;62856;51.446;8.360;2022-10-04T08:48:44;98526.25;;;12.58;90.43
74422;BME280;62856;51.446;8.360;2022-10-04T08:51:45;98530.47;;;12.69;88.65
74422;BME280;62856;51.446;8.360;2022-10-04T08:57:11;98527.56;;;12.89;86.32
74422;BME280;62856;51.446;8.360;2022-10-04T08:59:53;98522.28;;;13.02;85.82
74422;BME280;62856;51.446;8.360;2022-10-04T09:16:56;98505.28;;;16.00;71.61
74422;BME280;62856;51.446;8.360;2022-10-04T09:22:29;98509.03;;;17.49;65.57
74422;BME280;62856;51.446;8.360;2022-10-04T09:25:03;98506.06;;;17.36;61.85
74422;BME280;62856;51.446;8.360;2022-10-04T09:27:55;98507.94;;;17.67;61.21
74422;BME280;62856;51.446;8.360;2022-10-04T09:41:32;98510.50;;;18.40;59.70
74422;BME280;62856;51.446;8.360;2022-10-04T09:52:30;98489.31;;;19.47;52.32
74422;BME280;62856;51.446;8.360;2022-10-04T09:55:08;98486.16;;;19.36;54.97
74422;BME280;62856;51.446;8.360;2022-10-04T10:00:31;98485.44;;;20.18;51.22
74422;BME280;62856;51.446;8.360;2022-10-04T10:03:59;98476.97;;;20.76;50.25
74422;BME280;62856;51.446;8.360;2022-10-04T10:11:42;98464.03;;;20.20;48.42
74422;BME280;62856;51.446;8.360;2022-10-04T10:17:20;98461.16;;;21.06;45.81
74422;BME280;62856;51.446;8.360;2022-10-04T10:20:26;98463.78;;;21.51;46.29
74422;BME280;62856;51.446;8.360;2022-10-04T10:23:27;98455.56;;;21.26;47.40
74422;BME280;62856;51.446;8.360;2022-10-04T10:34:45;98455.06;;;21.61;44.58
74422;BME280;62856;51.446;8.360;2022-10-04T10:37:27;98452.28;;;21.73;44.96
74422;BME280;62856;51.446;8.360;2022-10-04T10:43:23;98446.53;;;22.57;42.04
74422;BME280;62856;51.446;8.360;2022-10-04T10:54:23;98421.88;;;22.45;41.34
74422;BME280;62856;51.446;8.360;2022-10-04T10:57:04;98413.78;;;22.80;40.95
74422;BME280;62856;51.446;8.360;2022-10-04T11:11:55;98409.66;;;22.89;37.83
74422;BME280;62856;51.446;8.360;2022-10-04T11:16:24;98414.91;;;22.63;38.65
74422;BME280;62856;51.446;8.360;2022-10-04T11:21:58;98416.06;;;23.09;39.41
74422;BME280;62856;51.446;8.360;2022-10-04T11:30:24;98408.97;;;24.54;35.89
74422;BME280;62856;51.446;8.360;2022-10-04T11:35:44;98400.94;;;24.45;37.64
74422;BME280;62856;51.446;8.360;2022-10-04T11:41:08;98403.44;;;24.95;35.00
74422;BME280;62856;51.446;8.360;2022-10-04T11:46:34;98407.13;;;23.81;37.43
74422;BME280;62856;51.446;8.360;2022-10-04T11:57:30;98386.66;;;25.07;35.45
74422;BME280;62856;51.446;8.360;2022-10-04T12:00:22;98384.00;;;25.63;35.31
74422;BME280;62856;51.446;8.360;2022-10-04T12:03:15;98383.56;;;25.35;36.99
74422;BME280;62856;51.446;8.360;2022-10-04T12:06:07;98378.88;;;24.87;34.38
74422;BME280;62856;51.446;8.360;2022-10-04T12:09:03;98374.22;;;25.17;34.84
74422;BME280;62856;51.446;8.360;2022-10-04T12:11:53;98367.69;;;25.02;33.48
74422;BME280;62856;51.446;8.360;2022-10-04T12:14:57;98365.19;;;24.71;34.10
74422;BME280;62856;51.446;8.360;2022-10-04T12:26:20;98355.56;;;25.63;32.32
74422;BME280;62856;51.446;8.360;2022-10-04T12:29:12;98351.88;;;25.25;33.58
74422;BME280;62856;51.446;8.360;2022-10-04T12:32:04;98352.13;;;25.17;32.55
74422;BME280;62856;51.446;8.360;2022-10-04T12:34:57;98342.63;;;24.88;33.89
74422;BME280;62856;51.446;8.360;2022-10-04T12:42:54;98339.75;;;26.26;32.04
74422;BME280;62856;51.446;8.360;2022-10-04T12:45:40;98341.56;;;25.22;33.95
74422;BME280;62856;51.446;8.360;2022-10-04T12:51:32;98320.25;;;24.93;33.41
74422;BME280;62856;51.446;8.360;2022-10-04T12:56:53;98325.28;;;24.88;33.56
74422;BME280;62856;51.446;8.360;2022-10-04T12:59:41;98331.50;;;25.07;32.34
74422;BME280;62856;51.446;8.360;2022-10-04T13:02:27;98337.38;;;24.80;31.19
74422;BME280;62856;51.446;8.360;2022-10-04T13:13:10;98313.69;;;25.01;29.75
74422;BME280;62856;51.446;8.360;2022-10-04T13:15:56;98317.16;;;24.72;29.53
74422;BME280;62856;51.446;8.360;2022-10-04T13:24:20;98321.91;;;23.88;31.07
74422;BME280;62856;51.446;8.360;2022-10-04T13:26:55;98314.13;;;23.37;31.55
74422;BME280;62856;51.446;8.360;2022-10-04T13:29:36;98315.63;;;24.07;31.74
74422;BME280;62856;51.446;8.360;2022-10-04T13:32:17;98307.28;;;24.03;31.49
74422;BME280;62856;51.446;8.360;2022-10-04T13:35:10;98306.19;;;24.31;32.17
74422;BME280;62856;51.446;8.360;2022-10-04T13:38:18;98299.69;;;24.19;31.98
74422;BME280;62856;51.446;8.360;2022-10-04T13:46:52;98305.09;;;24.12;32.45
74422;BME280;62856;51.446;8.360;2022-10-04T13:58:30;98280.25;;;23.52;33.59
74422;BME280;62856;51.446;8.360;2022-10-04T14:01:01;98272.59;;;23.61;34.16
74422;BME280;62856;51.446;8.360;2022-10-04T14:09:17;98275.22;;;23.00;33.81
74422;BME280;62856;51.446;8.360;2022-10-04T14:17:22;98275.69;;;22.24;34.94
74422;BME280;62856;51.446;8.360;2022-10-04T14:28:43;98273.91;;;23.13;36.12
74422;BME280;62856;51.446;8.360;2022-10-04T14:31:22;98283.16;;;22.70;36.46
74422;BME280;62856;51.446;8.360;2022-10-04T14:37:37;98271.69;;;22.06;36.04
74422;BME280;62856;51.446;8.360;2022-10-04T14:49:36;98260.19;;;21.73;36.14
74422;BME280;62856;51.446;8.360;2022-10-04T14:52:34;98252.22;;;21.80;38.22
74422;BME280;62856;51.446;8.360;2022-10-04T14:55:27;98258.03;;;21.51;37.77
74422;BME280;62856;51.446;8.360;2022-10-04T15:01:20;98261.63;;;20.75;39.90
74422;BME280;62856;51.446;8.360;2022-10-04T15:07:02;98268.97;;;20.47;40.52
74422;BME280;62856;51.446;8.360;2022-10-04T15:12:43;98260.25;;;19.64;43.75
74422;BME280;62856;51.446;8.360;2022-10-04T15:17:39;98247.38;;;19.32;44.86
74422;BME280;62856;51.446;8.360;2022-10-04T15:22:53;98241.56;;;18.92;45.96
74422;BME280;62856;51.446;8.360;2022-10-04T15:25:39;98234.63;;;18.74;47.00
74422;BME280;62856;51.446;8.360;2022-10-04T15:30:56;98234.78;;;18.40;46.41
74422;BME280;62856;51.446;8.360;2022-10-04T15:33:33;98248.31;;;18.36;47.27
74422;BME280;62856;51.446;8.360;2022-10-04T15:38:29;98231.16;;;18.36;48.07
74422;BME280;62856;51.446;8.360;2022-10-04T15:40:59;98235.84;;;18.27;46.57
74422;BME280;62856;51.446;8.360;2022-10-04T15:46:38;98230.19;;;18.32;46.64
74422;BME280;62856;51.446;8.360;2022-10-04T15:49:18;98236.50;;;18.24;47.99
74422;BME280;62856;51.446;8.360;2022-10-04T15:54:59;98237.22;;;18.04;46.29
74422;BME280;62856;51.446;8.360;2022-10-04T15:57:50;98236.63;;;17.90;46.59
74422;BME280;62856;51.446;8.360;2022-10-04T16:00:33;98229.94;;;17.79;46.64
74422;BME280;62856;51.446;8.360;2022-10-04T16:05:46;98245.41;;;17.58;47.83
74422;BME280;62856;51.446;8.360;2022-10-04T16:13:56;98258.69;;;17.16;50.46
74422;BME280;62856;51.446;8.360;2022-10-04T16:22:12;98267.19;;;16.72;51.39
74422;BME280;62856;51.446;8.360;2022-10-04T16:24:43;98264.25;;;16.60;52.98
74422;BME280;62856;51.446;8.360;2022-10-04T16:30:14;98256.53;;;16.45;52.94
74422;BME280;62856;51.446;8.360;2022-10-04T16:36:17;98264.00;;;16.31;52.99
74422;BME280;62856;51.446;8.360;2022-10-04T16:38:51;98259.00;;;16.16;55.02
74422;BME280;62856;51.446;8.360;2022-10-04T16:42:01;98270.13;;;16.06;55.25
74422;BME280;62856;51.446;8.360;2022-10-04T16:44:37;98262.28;;;15.96;55.54
74422;BME280;62856;51.446;8.360;2022-10-04T16:47:24;98282.66;;;15.76;58.68
74422;BME280;62856;51.446;8.360;2022-10-04T16:49:53;98279.63;;;15.56;59.79
74422;BME280;62856;51.446;8.360;2022-10-04T16:54:54;98276.66;;;15.21;62.69
74422;BME280;62856;51.446;8.360;2022-10-04T16:57:24;98273.28;;;15.02;65.53
74422;BME280;62856;51.446;8.360;2022-10-04T16:59:59;98278.97;;;14.79;67.77
74422;BME280;62856;51.446;8.360;2022-10-04T17:02:44;98279.03;;;14.65;66.85
74422;BME280;62856;51.446;8.360;2022-10-04T17:08:21;98267.66;;;14.22;65.37
74422;BME280;62856;51.446;8.360;2022-10-04T17:30:22;98306.81;;;13.06;73.10
74422;BME280;62856;51.446;8.360;2022-10-04T17:35:50;98294.63;;;12.67;75.99
74422;BME280;62856;51.446;8.360;2022-10-04T17:41:14;98296.63;;;12.38;77.13
74422;BME280;62856;51.446;8.360;2022-10-04T17:46:41;98297.47;;;12.33;78.19
74422;BME280;62856;51.446;8.360;2022-10-04T17:49:16;98284.84;;;12.28;79.26
74422;BME280;62856;51.446;8.360;2022-10-04T17:52:14;98298.28;;;12.33;78.20
74422;BME280;62856;51.446;8.360;2022-10-04T17:55:05;98280.56;;;12.22;80.11
74422;BME280;62856;51.446;8.360;2022-10-04T17:57:53;98286.44;;;12.29;78.81
74422;BME280;62856;51.446;8.360;2022-10-04T18:00:21;98279.28;;;12.39;79.68
74422;BME280;62856;51.446;8.360;2022-10-04T18:03:08;98282.09;;;12.52;79.30
74422;BME280;62856;51.446;8.360;2022-10-04T18:10:38;98271.00;;;12.54;79.19
74422;BME280;62856;51.446;8.360;2022-10-04T18:13:30;98277.22;;;12.54;79.51
74422;BME280;62856;51.446;8.360;2022-10-04T18:18:42;98294.22;;;12.36;80.40
74422;BME280;62856;51.446;8.360;2022-10-04T18:26:53;98287.69;;;11.90;82.80
74422;BME280;62856;51.446;8.360;2022-10-04T18:29:34;98272.88;;;11.87;83.23
74422;BME280;62856;51.446;8.360;2022-10-04T18:32:14;98271.31;;;11.81;84.93
74422;BME280;62856;51.446;8.360;2022-10-04T18:34:42;98266.22;;;11.80;88.85
74422;BME280;62856;51.446;8.360;2022-10-04T18:37:19;98273.06;;;11.96;86.33
74422;BME280;62856;51.446;8.360;2022-10-04T18:39:47;98271.56;;;12.08;85.20
74422;BME280;62856;51.446;8.360;2022-10-04T18:42:25;98278.47;;;12.19;84.70
74422;BME280;62856;51.446;8.360;2022-10-04T18:47:35;98271.59;;;12.51;82.15
74422;BME280;62856;51.446;8.360;2022-10-04T18:50:17;98285.25;;;12.59;81.86
74422;BME280;62856;51.446;8.360;2022-10-04T18:53:01;98284.97;;;12.61;81.60
74422;BME280;62856;51.446;8.360;2022-10-04T18:55:56;98293.88;;;12.61;81.80
74422;BME280;62856;51.446;8.360;2022-10-04T19:07:18;98286.66;;;12.75;79.89
74422;BME280;62856;51.446;8.360;2022-10-04T19:10:03;98290.47;;;12.74;80.34
74422;BME280;62856;51.446;8.360;2022-10-04T19:12:39;98288.78;;;12.78;80.22
74422;BME280;62856;51.446;8.360;2022-10-04T19:15:25;98284.47;;;12.77;79.93
74422;BME280;62856;51.446;8.360;2022-10-04T19:18:04;98281.31;;;12.70;79.73
74422;BME280;62856;51.446;8.360;2022-10-04T19:20:40;98284.09;;;12.84;79.12
74422;BME280;62856;51.446;8.360;2022-10-04T19:25:50;98288.44;;;12.85;79.40
74422;BME280;62856;51.446;8.360;2022-10-04T19:28:29;98292.00;;;12.80;80.39
74422;BME280;62856;51.446;8.360;2022-10-04T19:30:59;98308.16;;;12.67;80.82
74422;BME280;62856;51.446;8.360;2022-10-04T19:33:54;98312.13;;;12.74;80.02
74422;BME280;62856;51.446;8.360;2022-10-04T19:39:55;98300.03;;;12.67;80.61
74422;BME280;62856;51.446;8.360;2022-10-04T19:42:35;98302.56;;;12.58;80.40
74422;BME280;62856;51.446;8.360;2022-10-04T19:45:20;98303.00;;;12.47;81.89
74422;BME280;62856;51.446;8.360;2022-10-04T19:47:51;98301.13;;;12.47;81.62
74422;BME280;62856;51.446;8.360;2022-10-04T19:50:47;98296.06;;;12.59;80.57
74422;BME280;62856;51.446;8.360;2022-10-04T19:53:19;98291.56;;;12.73;80.12
74422;BME280;62856;51.446;8.360;2022-10-04T19:55:52;98296.81;;;12.65;80.94
74422;BME280;62856;51.446;8.360;2022-10-04T19:58:39;98291.53;;;12.55;81.64
74422;BME280;62856;51.446;8.360;2022-10-04T20:01:17;98299.25;;;12.43;82.27
74422;BME280;62856;51.446;8.360;2022-10-04T20:03:44;98298.59;;;12.32;83.02
74422;BME280;62856;51.446;8.360;2022-10-04T20:06:19;98296.56;;;12.43;82.61
74422;BME280;62856;51.446;8.360;2022-10-04T20:08:56;98290.75;;;12.54;81.79
74422;BME280;62856;51.446;8.360;2022-10-04T20:11:45;98272.25;;;12.61;82.35
74422;BME280;62856;51.446;8.360;2022-10-04T20:19:36;98272.78;;;12.63;82.36
74422;BME280;62856;51.446;8.360;2022-10-04T20:34:50;98240.50;;;12.48;84.20
74422;BME280;62856;51.446;8.360;2022-10-04T20:37:16;98238.66;;;12.44;84.98
74422;BME280;62856;51.446;8.360;2022-10-04T20:42:10;98245.78;;;12.58;84.11
74422;BME280;62856;51.446;8.360;2022-10-04T20:44:49;98247.31;;;12.64;84.54
74422;BME280;62856;51.446;8.360;2022-10-04T20:49:56;98259.81;;;12.60;84.88
74422;BME280;62856;51.446;8.360;2022-10-04T20:52:27;98257.78;;;12.52;84.95
74422;BME280;62856;51.446;8.360;2022-10-04T20:54:53;98263.47;;;12.51;85.02
74422;BME280;62856;51.446;8.360;2022-10-04T20:57:21;98271.19;;;12.39;86.23
74422;BME280;62856;51.446;8.360;2022-10-04T20:59:50;98280.41;;;12.38;86.74
74422;BME280;62856;51.446;8.360;2022-10-04T21:02:19;98291.84;;;12.29;86.81
74422;BME280;62856;51.446;8.360;2022-10-04T21:04:45;98292.28;;;12.18;87.83
74422;BME280;62856;51.446;8.360;2022-10-04T21:07:17;98290.81;;;12.02;89.06
74422;BME280;62856;51.446;8.360;2022-10-04T21:09:43;98288.69;;;11.99;89.28
74422;BME280;62856;51.446;8.360;2022-10-04T21:12:44;98278.97;;;11.98;89.46
74422;BME280;62856;51.446;8.360;2022-10-04T21:17:41;98277.03;;;11.80;90.48
74422;BME280;62856;51.446;8.360;2022-10-04T21:20:40;98267.13;;;11.94;91.01